sensor_id;sensor_type;location;lat;lon;timestamp;P1;durP1;ratioP1;P2;durP2;ratioP2
1831;SDS011;1680;48.106;11.708;2023-04-06T00:01:00;5.78;;;5.28;;
1831;SDS011;1680;48.106;11.708;2023-04-06T00:03:28;8.07;;;5.35;;
1831;SDS011;1680;48.106;11.708;2023-04-06T00:05:56;6.90;;;5.28;;
1831;SDS011;1680;48.106;11.708;2023-04-06T00:08:25;5.93;;;5.32;;
1831;SDS011;1680;48.106;11.708;2023-04-06T00:10:52;6.20;;;5.47;;
1831;SDS011;1680;48.106;11.708;2023-04-06T00:13:20;6.25;;;4.90;;
1831;SDS011;1680;48.106;11.708;2023-04-06T00:15:47;6.60;;;5.50;;
1831;SDS011;1680;48.106;11.708;2023-04-06T00:18:15;5.82;;;5.20;;
1831;SDS011;1680;48.106;11.708;2023-04-06T00:20:42;6.30;;;5.32;;
1831;SDS011;1680;48.106;11.708;2023-04-06T00:23:11;6.53;;;5.32;;
1831;SDS011;1680;48.106;11.708;2023-04-06T00:25:39;5.63;;;5.13;;
1831;SDS011;1680;48.106;11.708;2023-04-06T00:28:06;6.30;;;5.32;;
1831;SDS011;1680;48.106;11.708;2023-04-06T00:30:33;5.35;;;4.85;;
1831;SDS011;1680;48.106;11.708;2023-04-06T00:33:01;5.90;;;5.30;;
1831;SDS011;1680;48.106;11.708;2023-04-06T00:35:28;6.60;;;5.40;;
1831;SDS011;1680;48.106;11.708;2023-04-06T00:37:56;5.97;;;5.00;;
1831;SDS011;1680;48.106;11.708;2023-04-06T00:40:25;5.45;;;4.95;;
1831;SDS011;1680;48.106;11.708;2023-04-06T00:42:53;5.85;;;5.32;;
1831;SDS011;1680;48.106;11.708;2023-04-06T00:45:21;5.38;;;4.65;;
1831;SDS011;1680;48.106;11.708;2023-04-06T00:47:48;5.50;;;5.00;;
1831;SDS011;1680;48.106;11.708;2023-04-06T00:50:16;5.57;;;5.07;;
1831;SDS011;1680;48.106;11.708;2023-04-06T00:52:44;6.97;;;5.28;;
1831;SDS011;1680;48.106;11.708;2023-04-06T00:55:11;6.43;;;5.82;;
1831;SDS011;1680;48.106;11.708;2023-04-06T00:57:40;6.00;;;5.40;;
1831;SDS011;1680;48.106;11.708;2023-04-06T01:00:08;6.10;;;5.50;;
1831;SDS011;1680;48.106;11.708;2023-04-06T01:02:36;5.75;;;5.25;;
1831;SDS011;1680;48.106;11.708;2023-04-06T01:05:04;6.50;;;5.90;;
1831;SDS011;1680;48.106;11.708;2023-04-06T01:07:32;6.82;;;5.13;;
1831;SDS011;1680;48.106;11.708;2023-04-06T01:10:00;5.72;;;5.15;;
1831;SDS011;1680;48.106;11.708;2023-04-06T01:12:28;5.70;;;5.20;;
1831;SDS011;1680;48.106;11.708;2023-04-06T01:14:57;6.20;;;5.30;;
1831;SDS011;1680;48.106;11.708;2023-04-06T01:17:24;6.05;;;5.45;;
1831;SDS011;1680;48.106;11.708;2023-04-06T01:19:53;5.57;;;5.07;;
1831;SDS011;1680;48.106;11.708;2023-04-06T01:22:23;5.82;;;5.32;;
1831;SDS011;1680;48.106;11.708;2023-04-06T01:24:51;5.90;;;5.20;;
1831;SDS011;1680;48.106;11.708;2023-04-06T01:27:18;6.20;;;5.60;;
1831;SDS011;1680;48.106;11.708;2023-04-06T01:29:46;6.45;;;5.43;;
1831;SDS011;1680;48.106;11.708;2023-04-06T01:32:13;6.05;;;5.45;;
1831;SDS011;1680;48.106;11.708;2023-04-06T01:34:41;5.90;;;5.30;;
1831;SDS011;1680;48.106;11.708;2023-04-06T01:37:08;5.95;;;5.35;;
1831;SDS011;1680;48.106;11.708;2023-04-06T01:39:37;7.10;;;5.80;;
1831;SDS011;1680;48.106;11.708;2023-04-06T01:42:04;6.72;;;6.10;;
1831;SDS011;1680;48.106;11.708;2023-04-06T01:44:32;6.43;;;5.82;;
1831;SDS011;1680;48.106;11.708;2023-04-06T01:46:59;6.72;;;5.80;;
1831;SDS011;1680;48.106;11.708;2023-04-06T01:49:26;6.20;;;5.60;;
1831;SDS011;1680;48.106;11.708;2023-04-06T01:51:54;6.18;;;5.57;;
1831;SDS011;1680;48.106;11.708;2023-04-06T01:54:21;5.70;;;5.30;;
1831;SDS011;1680;48.106;11.708;2023-04-06T01:56:50;6.70;;;6.10;;
1831;SDS011;1680;48.106;11.708;2023-04-06T01:59:17;6.18;;;4.95;;
1831;SDS011;1680;48.106;11.708;2023-04-06T02:01:45;6.57;;;5.93;;
1831;SDS011;1680;48.106;11.708;2023-04-06T02:04:12;5.65;;;5.15;;
1831;SDS011;1680;48.106;11.708;2023-04-06T02:06:40;8.20;;;6.00;;
1831;SDS011;1680;48.106;11.708;2023-04-06T02:09:07;6.90;;;6.15;;
1831;SDS011;1680;48.106;11.708;2023-04-06T02:11:35;6.45;;;5.53;;
1831;SDS011;1680;48.106;11.708;2023-04-06T02:14:03;6.10;;;5.50;;
1831;SDS011;1680;48.106;11.708;2023-04-06T02:16:31;7.35;;;5.88;;
1831;SDS011;1680;48.106;11.708;2023-04-06T02:18:58;6.55;;;5.95;;
1831;SDS011;1680;48.106;11.708;2023-04-06T02:21:26;6.40;;;5.80;;
1831;SDS011;1680;48.106;11.708;2023-04-06T02:23:53;6.28;;;5.70;;
1831;SDS011;1680;48.106;11.708;2023-04-06T02:26:21;6.53;;;5.93;;
1831;SDS011;1680;48.106;11.708;2023-04-06T02:28:48;6.93;;;6.22;;
1831;SDS011;1680;48.106;11.708;2023-04-06T02:31:17;6.47;;;5.85;;
1831;SDS011;1680;48.106;11.708;2023-04-06T02:33:44;6.20;;;5.60;;
1831;SDS011;1680;48.106;11.708;2023-04-06T02:36:12;6.85;;;6.25;;
1831;SDS011;1680;48.106;11.708;2023-04-06T02:38:39;7.30;;;5.97;;
1831;SDS011;1680;48.106;11.708;2023-04-06T02:41:07;6.20;;;5.70;;
1831;SDS011;1680;48.106;11.708;2023-04-06T02:43:34;7.10;;;6.40;;
1831;SDS011;1680;48.106;11.708;2023-04-06T02:46:02;6.70;;;5.95;;
1831;SDS011;1680;48.106;11.708;2023-04-06T02:48:31;5.88;;;5.38;;
1831;SDS011;1680;48.106;11.708;2023-04-06T02:51:01;6.68;;;6.03;;
1831;SDS011;1680;48.106;11.708;2023-04-06T02:53:28;6.72;;;6.05;;
1831;SDS011;1680;48.106;11.708;2023-04-06T02:55:56;8.13;;;6.38;;
1831;SDS011;1680;48.106;11.708;2023-04-06T02:58:23;6.28;;;5.75;;
1831;SDS011;1680;48.106;11.708;2023-04-06T03:00:50;6.70;;;6.10;;
1831;SDS011;1680;48.106;11.708;2023-04-06T03:03:18;7.10;;;6.47;;
1831;SDS011;1680;48.106;11.708;2023-04-06T03:05:46;7.07;;;5.70;;
1831;SDS011;1680;48.106;11.708;2023-04-06T03:08:14;7.60;;;6.68;;
1831;SDS011;1680;48.106;11.708;2023-04-06T03:10:41;6.85;;;6.28;;
1831;SDS011;1680;48.106;11.708;2023-04-06T03:13:09;7.00;;;6.10;;
1831;SDS011;1680;48.106;11.708;2023-04-06T03:15:36;6.68;;;6.15;;
1831;SDS011;1680;48.106;11.708;2023-04-06T03:18:04;6.80;;;6.15;;
1831;SDS011;1680;48.106;11.708;2023-04-06T03:20:31;6.95;;;6.35;;
1831;SDS011;1680;48.106;11.708;2023-04-06T03:23:00;7.35;;;6.18;;
1831;SDS011;1680;48.106;11.708;2023-04-06T03:25:27;7.00;;;6.40;;
1831;SDS011;1680;48.106;11.708;2023-04-06T03:27:55;7.15;;;6.38;;
1831;SDS011;1680;48.106;11.708;2023-04-06T03:30:23;7.03;;;5.95;;
1831;SDS011;1680;48.106;11.708;2023-04-06T03:32:51;8.45;;;6.43;;
1831;SDS011;1680;48.106;11.708;2023-04-06T03:35:19;7.10;;;6.47;;
1831;SDS011;1680;48.106;11.708;2023-04-06T03:37:46;5.90;;;5.40;;
1831;SDS011;1680;48.106;11.708;2023-04-06T03:40:15;7.90;;;6.60;;
1831;SDS011;1680;48.106;11.708;2023-04-06T03:42:42;7.32;;;6.38;;
1831;SDS011;1680;48.106;11.708;2023-04-06T03:45:10;7.00;;;6.28;;
1831;SDS011;1680;48.106;11.708;2023-04-06T03:47:38;6.60;;;6.00;;
1831;SDS011;1680;48.106;11.708;2023-04-06T03:50:06;6.60;;;6.00;;
1831;SDS011;1680;48.106;11.708;2023-04-06T03:52:34;7.78;;;6.88;;
1831;SDS011;1680;48.106;11.708;2023-04-06T03:55:01;7.13;;;6.18;;
1831;SDS011;1680;48.106;11.708;2023-04-06T03:57:30;7.82;;;6.47;;
1831;SDS011;1680;48.106;11.708;2023-04-06T03:59:57;7.00;;;6.30;;
1831;SDS011;1680;48.106;11.708;2023-04-06T04:02:25;10.73;;;6.82;;
1831;SDS011;1680;48.106;11.708;2023-04-06T04:04:52;6.75;;;6.05;;
1831;SDS011;1680;48.106;11.708;2023-04-06T04:07:20;7.07;;;6.30;;
1831;SDS011;1680;48.106;11.708;2023-04-06T04:09:47;6.80;;;6.20;;
1831;SDS011;1680;48.106;11.708;2023-04-06T04:12:14;7.07;;;6.32;;
1831;SDS011;1680;48.106;11.708;2023-04-06T04:14:44;6.70;;;6.10;;
1831;SDS011;1680;48.106;11.708;2023-04-06T04:17:11;6.78;;;5.95;;
1831;SDS011;1680;48.106;11.708;2023-04-06T04:19:38;7.65;;;6.68;;
1831;SDS011;1680;48.106;11.708;2023-04-06T04:22:06;6.90;;;6.22;;
1831;SDS011;1680;48.106;11.708;2023-04-06T04:24:33;6.53;;;5.93;;
1831;SDS011;1680;48.106;11.708;2023-04-06T04:27:01;7.65;;;6.95;;
1831;SDS011;1680;48.106;11.708;2023-04-06T04:29:28;7.13;;;6.40;;
1831;SDS011;1680;48.106;11.708;2023-04-06T04:31:57;6.28;;;5.78;;
1831;SDS011;1680;48.106;11.708;2023-04-06T04:34:24;7.55;;;6.85;;
1831;SDS011;1680;48.106;11.708;2023-04-06T04:36:52;7.22;;;6.63;;
1831;SDS011;1680;48.106;11.708;2023-04-06T04:39:20;6.70;;;6.10;;
1831;SDS011;1680;48.106;11.708;2023-04-06T04:41:47;6.57;;;5.88;;
1831;SDS011;1680;48.106;11.708;2023-04-06T04:44:14;7.07;;;6.18;;
1831;SDS011;1680;48.106;11.708;2023-04-06T04:46:42;7.70;;;6.40;;
1831;SDS011;1680;48.106;11.708;2023-04-06T04:49:10;7.15;;;5.65;;
1831;SDS011;1680;48.106;11.708;2023-04-06T04:51:38;7.30;;;6.60;;
1831;SDS011;1680;48.106;11.708;2023-04-06T04:54:05;7.15;;;6.45;;
1831;SDS011;1680;48.106;11.708;2023-04-06T04:56:33;6.63;;;5.93;;
1831;SDS011;1680;48.106;11.708;2023-04-06T04:59:00;6.80;;;6.05;;
1831;SDS011;1680;48.106;11.708;2023-04-06T05:01:27;6.72;;;6.13;;
1831;SDS011;1680;48.106;11.708;2023-04-06T05:03:55;7.07;;;6.45;;
1831;SDS011;1680;48.106;11.708;2023-04-06T05:06:23;7.82;;;6.93;;
1831;SDS011;1680;48.106;11.708;2023-04-06T05:08:51;6.53;;;5.95;;
1831;SDS011;1680;48.106;11.708;2023-04-06T05:11:18;6.20;;;5.70;;
1831;SDS011;1680;48.106;11.708;2023-04-06T05:13:46;7.05;;;6.35;;
1831;SDS011;1680;48.106;11.708;2023-04-06T05:16:13;7.68;;;6.88;;
1831;SDS011;1680;48.106;11.708;2023-04-06T05:18:41;6.43;;;5.88;;
1831;SDS011;1680;48.106;11.708;2023-04-06T05:21:08;7.50;;;6.05;;
1831;SDS011;1680;48.106;11.708;2023-04-06T05:23:38;6.85;;;6.25;;
1831;SDS011;1680;48.106;11.708;2023-04-06T05:26:05;7.40;;;6.65;;
1831;SDS011;1680;48.106;11.708;2023-04-06T05:28:32;8.38;;;7.13;;
1831;SDS011;1680;48.106;11.708;2023-04-06T05:31:01;8.20;;;6.63;;
1831;SDS011;1680;48.106;11.708;2023-04-06T05:33:28;7.35;;;6.75;;
1831;SDS011;1680;48.106;11.708;2023-04-06T05:35:56;7.45;;;6.72;;
1831;SDS011;1680;48.106;11.708;2023-04-06T05:38:23;8.00;;;6.95;;
1831;SDS011;1680;48.106;11.708;2023-04-06T05:40:52;7.07;;;6.25;;
1831;SDS011;1680;48.106;11.708;2023-04-06T05:43:19;8.10;;;7.28;;
1831;SDS011;1680;48.106;11.708;2023-04-06T05:45:46;6.88;;;6.22;;
1831;SDS011;1680;48.106;11.708;2023-04-06T05:48:14;7.60;;;6.70;;
1831;SDS011;1680;48.106;11.708;2023-04-06T05:50:41;8.27;;;6.63;;
1831;SDS011;1680;48.106;11.708;2023-04-06T05:53:08;6.82;;;6.22;;
1831;SDS011;1680;48.106;11.708;2023-04-06T05:55:36;7.57;;;6.65;;
1831;SDS011;1680;48.106;11.708;2023-04-06T05:58:04;8.75;;;7.03;;
1831;SDS011;1680;48.106;11.708;2023-04-06T06:00:32;8.07;;;6.43;;
1831;SDS011;1680;48.106;11.708;2023-04-06T06:02:59;7.60;;;6.82;;
1831;SDS011;1680;48.106;11.708;2023-04-06T06:05:29;7.95;;;6.70;;
1831;SDS011;1680;48.106;11.708;2023-04-06T06:07:56;8.48;;;7.07;;
1831;SDS011;1680;48.106;11.708;2023-04-06T06:10:24;7.07;;;6.43;;
1831;SDS011;1680;48.106;11.708;2023-04-06T06:12:51;7.68;;;6.88;;
1831;SDS011;1680;48.106;11.708;2023-04-06T06:15:20;6.75;;;6.00;;
1831;SDS011;1680;48.106;11.708;2023-04-06T06:17:47;7.70;;;7.00;;
1831;SDS011;1680;48.106;11.708;2023-04-06T06:20:15;8.13;;;7.30;;
1831;SDS011;1680;48.106;11.708;2023-04-06T06:22:42;7.50;;;6.75;;
1831;SDS011;1680;48.106;11.708;2023-04-06T06:25:10;8.02;;;7.22;;
1831;SDS011;1680;48.106;11.708;2023-04-06T06:27:37;7.20;;;6.55;;
1831;SDS011;1680;48.106;11.708;2023-04-06T06:30:06;8.25;;;7.55;;
1831;SDS011;1680;48.106;11.708;2023-04-06T06:32:36;10.18;;;7.20;;
1831;SDS011;1680;48.106;11.708;2023-04-06T06:35:03;7.80;;;7.05;;
1831;SDS011;1680;48.106;11.708;2023-04-06T06:37:31;7.70;;;6.90;;
1831;SDS011;1680;48.106;11.708;2023-04-06T06:39:58;8.95;;;7.22;;
1831;SDS011;1680;48.106;11.708;2023-04-06T06:42:25;7.45;;;6.45;;
1831;SDS011;1680;48.106;11.708;2023-04-06T06:44:53;8.15;;;6.80;;
1831;SDS011;1680;48.106;11.708;2023-04-06T06:47:21;7.78;;;7.13;;
1831;SDS011;1680;48.106;11.708;2023-04-06T06:49:50;11.77;;;7.32;;
1831;SDS011;1680;48.106;11.708;2023-04-06T06:52:17;9.10;;;7.18;;
1831;SDS011;1680;48.106;11.708;2023-04-06T06:54:44;8.30;;;6.88;;
1831;SDS011;1680;48.106;11.708;2023-04-06T06:57:11;7.20;;;6.60;;
1831;SDS011;1680;48.106;11.708;2023-04-06T06:59:39;8.23;;;7.40;;
1831;SDS011;1680;48.106;11.708;2023-04-06T07:02:06;6.60;;;6.00;;
1831;SDS011;1680;48.106;11.708;2023-04-06T07:04:33;8.07;;;7.28;;
1831;SDS011;1680;48.106;11.708;2023-04-06T07:07:02;7.70;;;6.80;;
1831;SDS011;1680;48.106;11.708;2023-04-06T07:09:30;6.57;;;5.95;;
1831;SDS011;1680;48.106;11.708;2023-04-06T07:11:58;6.72;;;6.00;;
1831;SDS011;1680;48.106;11.708;2023-04-06T07:14:27;7.88;;;6.43;;
1831;SDS011;1680;48.106;11.708;2023-04-06T07:16:54;9.15;;;6.38;;
1831;SDS011;1680;48.106;11.708;2023-04-06T07:19:22;7.60;;;6.80;;
1831;SDS011;1680;48.106;11.708;2023-04-06T07:21:49;6.77;;;6.17;;
1831;SDS011;1680;48.106;11.708;2023-04-06T07:24:18;7.05;;;6.40;;
1831;SDS011;1680;48.106;11.708;2023-04-06T07:26:45;6.90;;;5.95;;
1831;SDS011;1680;48.106;11.708;2023-04-06T07:29:12;6.87;;;6.27;;
1831;SDS011;1680;48.106;11.708;2023-04-06T07:31:40;6.97;;;6.20;;
1831;SDS011;1680;48.106;11.708;2023-04-06T07:34:07;7.00;;;6.30;;
1831;SDS011;1680;48.106;11.708;2023-04-06T07:36:34;7.50;;;6.55;;
1831;SDS011;1680;48.106;11.708;2023-04-06T07:39:02;7.37;;;6.67;;
1831;SDS011;1680;48.106;11.708;2023-04-06T07:41:30;6.80;;;5.50;;
1831;SDS011;1680;48.106;11.708;2023-04-06T07:43:58;7.20;;;6.23;;
1831;SDS011;1680;48.106;11.708;2023-04-06T07:46:25;7.03;;;5.57;;
1831;SDS011;1680;48.106;11.708;2023-04-06T07:48:52;6.20;;;5.27;;
1831;SDS011;1680;48.106;11.708;2023-04-06T07:51:20;8.00;;;6.30;;
1831;SDS011;1680;48.106;11.708;2023-04-06T07:53:47;6.17;;;5.67;;
1831;SDS011;1680;48.106;11.708;2023-04-06T07:56:14;7.27;;;6.20;;
1831;SDS011;1680;48.106;11.708;2023-04-06T07:58:44;6.77;;;6.17;;
1831;SDS011;1680;48.106;11.708;2023-04-06T08:01:11;6.53;;;5.93;;
1831;SDS011;1680;48.106;11.708;2023-04-06T08:03:39;6.70;;;5.90;;
1831;SDS011;1680;48.106;11.708;2023-04-06T08:06:07;5.77;;;5.10;;
1831;SDS011;1680;48.106;11.708;2023-04-06T08:08:34;6.50;;;5.90;;
1831;SDS011;1680;48.106;11.708;2023-04-06T08:11:01;7.03;;;6.07;;
1831;SDS011;1680;48.106;11.708;2023-04-06T08:13:29;7.73;;;6.40;;
1831;SDS011;1680;48.106;11.708;2023-04-06T08:15:58;7.47;;;6.87;;
1831;SDS011;1680;48.106;11.708;2023-04-06T08:18:26;7.17;;;6.43;;
1831;SDS011;1680;48.106;11.708;2023-04-06T08:20:55;6.97;;;6.23;;
1831;SDS011;1680;48.106;11.708;2023-04-06T08:23:22;7.40;;;6.73;;
1831;SDS011;1680;48.106;11.708;2023-04-06T08:25:49;7.00;;;6.30;;
1831;SDS011;1680;48.106;11.708;2023-04-06T08:28:19;6.87;;;6.17;;
1831;SDS011;1680;48.106;11.708;2023-04-06T08:30:46;6.90;;;6.20;;
1831;SDS011;1680;48.106;11.708;2023-04-06T08:33:15;6.73;;;6.03;;
1831;SDS011;1680;48.106;11.708;2023-04-06T08:35:43;7.20;;;6.50;;
1831;SDS011;1680;48.106;11.708;2023-04-06T08:38:10;7.87;;;6.90;;
1831;SDS011;1680;48.106;11.708;2023-04-06T08:40:37;7.00;;;6.30;;
1831;SDS011;1680;48.106;11.708;2023-04-06T08:43:06;7.17;;;6.47;;
1831;SDS011;1680;48.106;11.708;2023-04-06T08:45:36;6.57;;;5.97;;
1831;SDS011;1680;48.106;11.708;2023-04-06T08:48:05;7.07;;;6.47;;
1831;SDS011;1680;48.106;11.708;2023-04-06T08:50:34;8.23;;;7.43;;
1831;SDS011;1680;48.106;11.708;2023-04-06T08:53:02;7.00;;;6.40;;
1831;SDS011;1680;48.106;11.708;2023-04-06T08:55:29;7.40;;;6.70;;
1831;SDS011;1680;48.106;11.708;2023-04-06T08:57:57;7.57;;;6.77;;
1831;SDS011;1680;48.106;11.708;2023-04-06T09:00:26;7.00;;;6.30;;
1831;SDS011;1680;48.106;11.708;2023-04-06T09:02:55;7.07;;;6.03;;
1831;SDS011;1680;48.106;11.708;2023-04-06T09:05:24;7.90;;;7.20;;
1831;SDS011;1680;48.106;11.708;2023-04-06T09:07:54;6.97;;;6.37;;
1831;SDS011;1680;48.106;11.708;2023-04-06T09:10:21;8.30;;;6.57;;
1831;SDS011;1680;48.106;11.708;2023-04-06T09:12:50;6.57;;;6.00;;
1831;SDS011;1680;48.106;11.708;2023-04-06T09:15:18;7.93;;;7.23;;
1831;SDS011;1680;48.106;11.708;2023-04-06T09:17:46;7.53;;;6.73;;
1831;SDS011;1680;48.106;11.708;2023-04-06T09:20:14;7.10;;;6.40;;
1831;SDS011;1680;48.106;11.708;2023-04-06T09:22:42;7.30;;;6.60;;
1831;SDS011;1680;48.106;11.708;2023-04-06T09:25:17;7.60;;;6.00;;
1831;SDS011;1680;48.106;11.708;2023-04-06T09:27:48;7.90;;;7.10;;
1831;SDS011;1680;48.106;11.708;2023-04-06T09:30:24;6.90;;;6.30;;
1831;SDS011;1680;48.106;11.708;2023-04-06T09:32:52;7.60;;;6.90;;
1831;SDS011;1680;48.106;11.708;2023-04-06T09:35:21;8.73;;;7.83;;
1831;SDS011;1680;48.106;11.708;2023-04-06T09:37:51;8.90;;;7.80;;
1831;SDS011;1680;48.106;11.708;2023-04-06T09:40:21;8.30;;;7.50;;
1831;SDS011;1680;48.106;11.708;2023-04-06T09:42:49;9.50;;;7.60;;
1831;SDS011;1680;48.106;11.708;2023-04-06T09:45:19;8.70;;;7.50;;
1831;SDS011;1680;48.106;11.708;2023-04-06T09:47:47;11.00;;;8.17;;
1831;SDS011;1680;48.106;11.708;2023-04-06T09:50:15;8.83;;;7.80;;
1831;SDS011;1680;48.106;11.708;2023-04-06T09:52:46;9.30;;;8.40;;
1831;SDS011;1680;48.106;11.708;2023-04-06T09:55:17;8.53;;;7.63;;
1831;SDS011;1680;48.106;11.708;2023-04-06T09:57:52;8.53;;;7.70;;
1831;SDS011;1680;48.106;11.708;2023-04-06T10:00:24;8.07;;;7.27;;
1831;SDS011;1680;48.106;11.708;2023-04-06T10:02:54;10.80;;;7.90;;
1831;SDS011;1680;48.106;11.708;2023-04-06T10:05:28;9.20;;;8.30;;
1831;SDS011;1680;48.106;11.708;2023-04-06T10:08:02;7.60;;;6.83;;
1831;SDS011;1680;48.106;11.708;2023-04-06T10:10:35;8.17;;;7.00;;
1831;SDS011;1680;48.106;11.708;2023-04-06T10:13:03;9.87;;;8.97;;
1831;SDS011;1680;48.106;11.708;2023-04-06T10:15:31;8.23;;;7.43;;
1831;SDS011;1680;48.106;11.708;2023-04-06T10:17:59;7.93;;;7.20;;
1831;SDS011;1680;48.106;11.708;2023-04-06T10:20:29;11.13;;;8.10;;
1831;SDS011;1680;48.106;11.708;2023-04-06T10:23:01;9.50;;;8.60;;
1831;SDS011;1680;48.106;11.708;2023-04-06T10:25:51;8.63;;;7.83;;
1831;SDS011;1680;48.106;11.708;2023-04-06T10:28:19;10.40;;;7.93;;
1831;SDS011;1680;48.106;11.708;2023-04-06T10:30:47;9.67;;;8.47;;
1831;SDS011;1680;48.106;11.708;2023-04-06T10:33:14;9.87;;;8.97;;
1831;SDS011;1680;48.106;11.708;2023-04-06T10:35:42;9.73;;;8.83;;
1831;SDS011;1680;48.106;11.708;2023-04-06T10:38:09;9.10;;;8.30;;
1831;SDS011;1680;48.106;11.708;2023-04-06T10:40:40;11.53;;;8.37;;
1831;SDS011;1680;48.106;11.708;2023-04-06T10:43:10;9.20;;;8.30;;
1831;SDS011;1680;48.106;11.708;2023-04-06T10:45:38;10.30;;;9.17;;
1831;SDS011;1680;48.106;11.708;2023-04-06T10:48:14;9.60;;;8.70;;
1831;SDS011;1680;48.106;11.708;2023-04-06T10:50:43;9.57;;;8.63;;
1831;SDS011;1680;48.106;11.708;2023-04-06T10:53:11;10.53;;;9.60;;
1831;SDS011;1680;48.106;11.708;2023-04-06T10:55:38;10.43;;;8.30;;
1831;SDS011;1680;48.106;11.708;2023-04-06T10:58:07;9.40;;;8.50;;
1831;SDS011;1680;48.106;11.708;2023-04-06T11:00:35;9.30;;;8.30;;
1831;SDS011;1680;48.106;11.708;2023-04-06T11:03:10;9.60;;;8.70;;
1831;SDS011;1680;48.106;11.708;2023-04-06T11:05:37;9.67;;;8.77;;
1831;SDS011;1680;48.106;11.708;2023-04-06T11:08:05;9.50;;;8.60;;
1831;SDS011;1680;48.106;11.708;2023-04-06T11:10:32;10.40;;;8.63;;
1831;SDS011;1680;48.106;11.708;2023-04-06T11:13:01;9.33;;;8.27;;
1831;SDS011;1680;48.106;11.708;2023-04-06T11:15:33;9.30;;;8.40;;
1831;SDS011;1680;48.106;11.708;2023-04-06T11:18:03;9.17;;;8.27;;
1831;SDS011;1680;48.106;11.708;2023-04-06T11:20:30;9.37;;;8.50;;
1831;SDS011;1680;48.106;11.708;2023-04-06T11:22:58;8.70;;;7.23;;
1831;SDS011;1680;48.106;11.708;2023-04-06T11:25:26;9.30;;;8.40;;
1831;SDS011;1680;48.106;11.708;2023-04-06T11:27:56;9.10;;;8.20;;
1831;SDS011;1680;48.106;11.708;2023-04-06T11:30:25;9.23;;;8.33;;
1831;SDS011;1680;48.106;11.708;2023-04-06T11:33:00;8.50;;;7.80;;
1831;SDS011;1680;48.106;11.708;2023-04-06T11:35:28;9.30;;;8.40;;
1831;SDS011;1680;48.106;11.708;2023-04-06T11:38:02;8.73;;;7.83;;
1831;SDS011;1680;48.106;11.708;2023-04-06T11:40:30;8.90;;;7.73;;
1831;SDS011;1680;48.106;11.708;2023-04-06T11:42:58;10.70;;;8.40;;
1831;SDS011;1680;48.106;11.708;2023-04-06T11:45:27;8.50;;;7.70;;
1831;SDS011;1680;48.106;11.708;2023-04-06T11:47:55;9.30;;;8.40;;
1831;SDS011;1680;48.106;11.708;2023-04-06T11:50:24;9.50;;;8.10;;
1831;SDS011;1680;48.106;11.708;2023-04-06T11:52:58;10.13;;;9.13;;
1831;SDS011;1680;48.106;11.708;2023-04-06T11:55:26;9.60;;;8.67;;
1831;SDS011;1680;48.106;11.708;2023-04-06T11:57:55;9.03;;;8.23;;
1831;SDS011;1680;48.106;11.708;2023-04-06T12:00:26;8.77;;;7.87;;
1831;SDS011;1680;48.106;11.708;2023-04-06T12:02:59;9.60;;;8.20;;
1831;SDS011;1680;48.106;11.708;2023-04-06T12:05:27;8.70;;;7.93;;
1831;SDS011;1680;48.106;11.708;2023-04-06T12:07:55;9.20;;;8.33;;
1831;SDS011;1680;48.106;11.708;2023-04-06T12:10:23;10.07;;;9.10;;
1831;SDS011;1680;48.106;11.708;2023-04-06T12:12:50;10.27;;;9.00;;
1831;SDS011;1680;48.106;11.708;2023-04-06T12:15:17;9.90;;;8.27;;
1831;SDS011;1680;48.106;11.708;2023-04-06T12:17:46;9.63;;;8.10;;
1831;SDS011;1680;48.106;11.708;2023-04-06T12:20:14;8.87;;;7.97;;
1831;SDS011;1680;48.106;11.708;2023-04-06T12:22:42;11.90;;;7.87;;
1831;SDS011;1680;48.106;11.708;2023-04-06T12:25:09;9.27;;;7.33;;
1831;SDS011;1680;48.106;11.708;2023-04-06T12:27:37;9.83;;;8.60;;
1831;SDS011;1680;48.106;11.708;2023-04-06T12:30:05;10.43;;;9.30;;
1831;SDS011;1680;48.106;11.708;2023-04-06T12:32:33;10.60;;;9.53;;
1831;SDS011;1680;48.106;11.708;2023-04-06T12:35:02;11.30;;;10.20;;
1831;SDS011;1680;48.106;11.708;2023-04-06T12:37:30;11.83;;;10.70;;
1831;SDS011;1680;48.106;11.708;2023-04-06T12:39:57;11.43;;;10.30;;
1831;SDS011;1680;48.106;11.708;2023-04-06T12:42:25;11.10;;;9.97;;
1831;SDS011;1680;48.106;11.708;2023-04-06T12:44:52;11.13;;;10.03;;
1831;SDS011;1680;48.106;11.708;2023-04-06T12:47:20;10.10;;;9.10;;
1831;SDS011;1680;48.106;11.708;2023-04-06T12:49:49;9.97;;;9.07;;
1831;SDS011;1680;48.106;11.708;2023-04-06T12:52:17;10.60;;;9.50;;
1831;SDS011;1680;48.106;11.708;2023-04-06T12:54:45;8.73;;;7.93;;
1831;SDS011;1680;48.106;11.708;2023-04-06T12:57:13;15.93;;;8.30;;
1831;SDS011;1680;48.106;11.708;2023-04-06T12:59:42;9.90;;;9.00;;
1831;SDS011;1680;48.106;11.708;2023-04-06T13:02:10;10.73;;;9.67;;
1831;SDS011;1680;48.106;11.708;2023-04-06T13:04:37;11.43;;;10.07;;
1831;SDS011;1680;48.106;11.708;2023-04-06T13:07:05;11.17;;;10.07;;
1831;SDS011;1680;48.106;11.708;2023-04-06T13:09:34;10.97;;;9.77;;
1831;SDS011;1680;48.106;11.708;2023-04-06T13:12:01;9.23;;;8.33;;
1831;SDS011;1680;48.106;11.708;2023-04-06T13:14:29;9.47;;;8.57;;
1831;SDS011;1680;48.106;11.708;2023-04-06T13:16:56;8.47;;;7.53;;
1831;SDS011;1680;48.106;11.708;2023-04-06T13:19:23;9.07;;;8.17;;
1831;SDS011;1680;48.106;11.708;2023-04-06T13:21:51;9.73;;;8.67;;
1831;SDS011;1680;48.106;11.708;2023-04-06T13:24:19;9.57;;;8.67;;
1831;SDS011;1680;48.106;11.708;2023-04-06T13:26:48;9.30;;;8.50;;
1831;SDS011;1680;48.106;11.708;2023-04-06T13:29:15;7.73;;;6.93;;
1831;SDS011;1680;48.106;11.708;2023-04-06T13:31:43;10.00;;;9.00;;
1831;SDS011;1680;48.106;11.708;2023-04-06T13:34:10;11.17;;;10.07;;
1831;SDS011;1680;48.106;11.708;2023-04-06T13:36:37;10.53;;;9.43;;
1831;SDS011;1680;48.106;11.708;2023-04-06T13:39:06;11.60;;;10.27;;
1831;SDS011;1680;48.106;11.708;2023-04-06T13:41:34;10.80;;;9.80;;
1831;SDS011;1680;48.106;11.708;2023-04-06T13:44:02;9.97;;;8.93;;
1831;SDS011;1680;48.106;11.708;2023-04-06T13:46:30;9.57;;;8.70;;
1831;SDS011;1680;48.106;11.708;2023-04-06T13:48:57;9.17;;;8.27;;
1831;SDS011;1680;48.106;11.708;2023-04-06T13:51:24;9.63;;;8.73;;
1831;SDS011;1680;48.106;11.708;2023-04-06T13:53:52;10.07;;;9.10;;
1831;SDS011;1680;48.106;11.708;2023-04-06T13:56:20;9.03;;;7.90;;
1831;SDS011;1680;48.106;11.708;2023-04-06T13:58:47;9.57;;;8.20;;
1831;SDS011;1680;48.106;11.708;2023-04-06T14:01:16;8.37;;;7.57;;
1831;SDS011;1680;48.106;11.708;2023-04-06T14:03:43;8.90;;;8.00;;
1831;SDS011;1680;48.106;11.708;2023-04-06T14:06:12;9.00;;;8.20;;
1831;SDS011;1680;48.106;11.708;2023-04-06T14:08:40;8.43;;;7.57;;
1831;SDS011;1680;48.106;11.708;2023-04-06T14:11:10;10.40;;;7.40;;
1831;SDS011;1680;48.106;11.708;2023-04-06T14:13:38;8.80;;;8.00;;
1831;SDS011;1680;48.106;11.708;2023-04-06T14:16:06;8.53;;;7.73;;
1831;SDS011;1680;48.106;11.708;2023-04-06T14:18:35;8.97;;;8.07;;
1831;SDS011;1680;48.106;11.708;2023-04-06T14:21:03;9.37;;;7.47;;
1831;SDS011;1680;48.106;11.708;2023-04-06T14:23:31;8.20;;;7.50;;
1831;SDS011;1680;48.106;11.708;2023-04-06T14:26:02;8.00;;;7.27;;
1831;SDS011;1680;48.106;11.708;2023-04-06T14:28:30;7.27;;;6.57;;
1831;SDS011;1680;48.106;11.708;2023-04-06T14:30:58;8.57;;;7.30;;
1831;SDS011;1680;48.106;11.708;2023-04-06T14:33:26;8.17;;;7.47;;
1831;SDS011;1680;48.106;11.708;2023-04-06T14:35:54;8.40;;;7.53;;
1831;SDS011;1680;48.106;11.708;2023-04-06T14:38:22;9.27;;;8.30;;
1831;SDS011;1680;48.106;11.708;2023-04-06T14:40:49;7.80;;;7.10;;
1831;SDS011;1680;48.106;11.708;2023-04-06T14:43:16;8.43;;;7.70;;
1831;SDS011;1680;48.106;11.708;2023-04-06T14:45:44;8.77;;;7.63;;
1831;SDS011;1680;48.106;11.708;2023-04-06T14:48:11;10.30;;;8.03;;
1831;SDS011;1680;48.106;11.708;2023-04-06T14:50:39;8.90;;;8.10;;
1831;SDS011;1680;48.106;11.708;2023-04-06T14:53:13;10.73;;;8.37;;
1831;SDS011;1680;48.106;11.708;2023-04-06T14:55:40;9.20;;;8.30;;
1831;SDS011;1680;48.106;11.708;2023-04-06T14:58:08;9.23;;;8.40;;
1831;SDS011;1680;48.106;11.708;2023-04-06T15:00:36;8.80;;;7.90;;
1831;SDS011;1680;48.106;11.708;2023-04-06T15:03:03;9.27;;;7.43;;
1831;SDS011;1680;48.106;11.708;2023-04-06T15:05:31;8.30;;;7.60;;